Time;durP1;ratioP1;P1;durP2;ratioP2;P2;SDS_P1;SDS_P2;PMS_P1;PMS_P2;Temp;Humidity;BMP_temperature;BMP_pressure;BME280_temperature;BME280_humidity;BME280_pressure;Samples;Min_cycle;Max_cycle;Signal;HPM_P1;HPM_P2
2021/12/18 00:01:24;;;;;;;7.95;3.83;;;15.40;99.90;;;;;;5075001;28;20132;-66
2021/12/18 00:03:50;;;;;;;7.75;3.25;;;;;;;;;;5055816;28;20049;-63
2021/12/18 00:06:16;;;;;;;7.32;3.63;;;15.30;99.90;;;;;;5054691;28;20045;-61
2021/12/18 00:08:41;;;;;;;6.28;3.25;;;15.10;99.90;;;;;;5054469;28;20051;-61
2021/12/18 00:11:07;;;;;;;7.47;3.40;;;14.70;99.90;;;;;;5054523;28;20118;-62
2021/12/18 00:13:33;;;;;;;8.63;3.72;;;15.00;99.90;;;;;;5054449;28;20051;-66
2021/12/18 00:15:59;;;;;;;7.40;3.58;;;15.00;99.90;;;;;;5047719;28;20080;-66
2021/12/18 00:18:25;;;;;;;7.18;3.55;;;15.10;99.90;;;;;;5058957;28;20085;-66
2021/12/18 00:20:51;;;;;;;8.18;3.58;;;14.90;99.90;;;;;;5054542;28;20053;-66
2021/12/18 00:23:16;;;;;;;7.43;3.45;;;15.20;99.90;;;;;;5054487;28;20382;-66
2021/12/18 00:25:43;;;;;;;6.88;3.50;;;15.40;99.90;;;;;;5053062;28;20075;-66
2021/12/18 00:28:09;;;;;;;7.63;4.30;;;15.00;99.90;;;;;;5054406;28;20055;-67
2021/12/18 00:30:35;;;;;;;8.35;3.55;;;14.70;99.90;;;;;;5054323;28;20080;-66
2021/12/18 00:33:01;;;;;;;6.40;3.45;;;15.10;99.90;;;;;;5062905;28;20075;-66
2021/12/18 00:35:26;;;;;;;9.15;3.90;;;15.20;99.90;;;;;;5068895;28;20056;-60
2021/12/18 00:37:52;;;;;;;7.63;3.85;;;15.00;99.90;;;;;;5054342;28;20068;-61
2021/12/18 00:40:23;;;;;;;8.90;3.53;;;14.90;99.90;;;;;;5054288;28;20041;-61
2021/12/18 00:42:57;;;;;;;6.80;3.40;;;15.10;99.90;;;;;;5069192;28;20048;-61
2021/12/18 00:45:23;;;;;;;5.97;3.47;;;15.00;99.90;;;;;;5054262;28;20051;-61
2021/12/18 00:47:49;;;;;;;6.43;3.13;;;15.00;99.90;;;;;;5053594;28;20044;-61
2021/12/18 00:50:23;;;;;;;6.45;3.13;;;14.90;99.90;;;;;;5054009;28;20037;-62
2021/12/18 00:52:49;;;;;;;7.50;3.30;;;15.10;99.90;;;;;;5062344;28;20064;-61
2021/12/18 00:55:15;;;;;;;5.90;2.63;;;15.00;99.90;;;;;;5053836;28;20049;-61
2021/12/18 00:57:41;;;;;;;6.25;3.20;;;14.90;99.90;;;;;;5051576;28;20053;-61
2021/12/18 01:00:08;;;;;;;6.47;2.95;;;15.00;99.90;;;;;;5053852;28;20045;-60
2021/12/18 01:02:36;;;;;;;6.50;3.10;;;14.90;99.90;;;;;;5036091;28;20115;-61
2021/12/18 01:05:03;;;;;;;6.68;3.35;;;15.10;99.90;;;;;;5053824;28;20094;-61
2021/12/18 01:07:29;;;;;;;6.47;3.13;;;15.00;99.90;;;;;;5052812;28;20092;-61
2021/12/18 01:12:34;;;;;;;5.63;2.70;;;14.60;99.90;;;;;;5053357;28;20128;-61
2021/12/18 01:22:48;;;;;;;6.40;2.60;;;14.80;99.90;;;;;;5053614;28;20041;-61
2021/12/18 01:25:16;;;;;;;6.13;2.50;;;15.00;99.90;;;;;;5051978;28;20049;-61
2021/12/18 01:27:42;;;;;;;6.85;2.80;;;15.30;99.90;;;;;;5053073;28;20479;-61
2021/12/18 01:30:09;;;;;;;5.53;2.60;;;15.00;99.90;;;;;;5052414;28;20051;-61
2021/12/18 01:32:35;;;;;;;5.72;2.70;;;14.90;99.90;;;;;;5053519;28;20386;-61
2021/12/18 01:35:01;;;;;;;6.25;2.80;;;15.10;99.90;;;;;;5053914;28;20045;-61
2021/12/18 01:37:28;;;;;;;6.55;2.85;;;14.80;99.90;;;;;;5053248;28;20080;-61
2021/12/18 01:39:54;;;;;;;5.40;2.22;;;15.10;99.90;;;;;;5052874;28;20386;-61
2021/12/18 01:53:00;;;;;;;5.30;2.30;;;15.10;99.90;;;;;;5054151;28;20441;-61
2021/12/18 01:55:36;;;;;;;5.80;2.50;;;15.20;99.90;;;;;;5059328;28;20045;-62
2021/12/18 01:58:02;;;;;;;5.40;2.45;;;15.00;99.90;;;;;;5073976;28;20056;-61
2021/12/18 02:00:39;;;;;;;5.55;2.30;;;14.90;99.90;;;;;;5079579;28;20048;-61
2021/12/18 02:03:05;;;;;;;4.53;2.10;;;15.10;99.90;;;;;;5053961;28;20109;-65
2021/12/18 02:05:31;;;;;;;5.72;2.40;;;14.60;99.90;;;;;;5080083;28;20045;-63
2021/12/18 02:07:57;;;;;;;5.60;2.55;;;15.00;99.90;;;;;;5079446;28;20028;-66
2021/12/18 02:10:27;;;;;;;5.55;2.20;;;14.90;99.90;;;;;;5080306;28;20457;-66
2021/12/18 02:13:10;;;;;;;5.95;2.60;;;15.00;99.90;;;;;;5078933;28;20576;-66
2021/12/18 02:21:15;;;;;;;6.10;2.55;;;15.10;99.90;;;;;;5079492;28;20102;-61
2021/12/18 02:23:41;;;;;;;6.22;2.50;;;15.00;99.90;;;;;;5079356;28;20048;-62
2021/12/18 02:26:07;;;;;;;6.25;2.70;;;14.70;99.90;;;;;;5079420;28;20043;-62
2021/12/18 02:28:33;;;;;;;8.13;3.08;;;;;;;;;;5079608;28;20448;-61
2021/12/18 02:30:59;;;;;;;5.95;2.35;;;14.90;99.90;;;;;;5078995;28;20178;-62
2021/12/18 02:33:25;;;;;;;5.30;2.15;;;;;;;;;;5078371;28;20066;-61
2021/12/18 02:35:53;;;;;;;5.82;2.28;;;14.90;99.90;;;;;;5079368;28;20040;-61
2021/12/18 02:38:29;;;;;;;5.55;2.38;;;15.10;99.90;;;;;;5079560;28;20133;-61
2021/12/18 02:43:29;;;;;;;6.20;2.72;;;15.00;99.90;;;;;;5078717;28;20068;-66
2021/12/18 02:45:59;;;;;;;5.82;2.33;;;15.00;99.90;;;;;;5061609;28;20041;-66
2021/12/18 02:48:28;;;;;;;4.90;2.35;;;14.70;99.90;;;;;;5078849;28;20036;-67
2021/12/18 02:50:57;;;;;;;7.57;2.88;;;14.90;99.90;;;;;;5079261;28;20044;-66
2021/12/18 02:53:24;;;;;;;6.25;2.72;;;14.70;99.90;;;;;;5079267;28;20060;-66
2021/12/18 02:55:58;;;;;;;6.65;3.05;;;15.10;99.90;;;;;;5077711;28;20055;-61
2021/12/18 02:58:24;;;;;;;5.57;2.45;;;14.80;99.90;;;;;;5078688;28;20052;-62
2021/12/18 03:00:51;;;;;;;6.68;2.75;;;14.80;99.90;;;;;;5078298;28;20068;-61
2021/12/18 03:03:17;;;;;;;6.35;2.78;;;15.00;99.90;;;;;;5079207;28;20421;-61
2021/12/18 03:05:55;;;;;;;6.63;2.70;;;14.80;99.90;;;;;;5056933;28;20122;-61
2021/12/18 03:08:35;;;;;;;6.15;2.55;;;14.40;99.90;;;;;;5075060;28;20050;-61
2021/12/18 03:22:41;;;;;;;5.60;2.30;;;14.70;99.90;;;;;;5075534;28;20076;-60
2021/12/18 03:27:28;;;;;;;5.28;2.35;;;15.00;99.90;;;;;;5068355;28;20048;-61
2021/12/18 03:29:55;;;;;;;5.55;2.40;;;14.80;99.90;;;;;;5075826;28;20485;-66
2021/12/18 03:32:22;;;;;;;5.60;2.50;;;14.70;99.90;;;;;;5075477;28;20048;-66
2021/12/18 03:34:48;;;;;;;5.53;2.35;;;14.80;99.90;;;;;;5074740;28;20106;-66
2021/12/18 03:37:13;;;;;;;5.22;2.15;;;14.90;99.90;;;;;;5074460;28;20510;-66
2021/12/18 03:39:40;;;;;;;4.57;1.90;;;;;;;;;;5074654;28;20042;-66
2021/12/18 03:42:06;;;;;;;4.53;2.00;;;14.90;99.90;;;;;;5075271;28;20033;-66
2021/12/18 03:44:32;;;;;;;5.55;2.28;;;14.70;99.90;;;;;;5075066;28;20037;-65
2021/12/18 03:46:58;;;;;;;4.45;1.83;;;14.60;99.90;;;;;;5075246;28;20079;-66
2021/12/18 03:49:24;;;;;;;4.65;1.85;;;;;;;;;;5074906;28;20092;-66
2021/12/18 03:51:50;;;;;;;4.82;1.90;;;14.90;99.90;;;;;;5075300;28;20043;-66
2021/12/18 03:54:16;;;;;;;5.03;1.90;;;;;;;;;;5075110;28;20048;-66
2021/12/18 03:56:42;;;;;;;4.13;1.85;;;14.80;99.90;;;;;;5074845;28;20111;-66
2021/12/18 03:59:08;;;;;;;4.57;1.85;;;14.70;99.90;;;;;;5074702;28;20486;-66
2021/12/18 04:01:34;;;;;;;4.70;1.77;;;;;;;;;;5057023;28;20048;-66
2021/12/18 04:04:00;;;;;;;5.15;1.88;;;14.90;99.90;;;;;;5074498;28;20098;-66
2021/12/18 04:06:25;;;;;;;3.25;1.63;;;14.80;99.90;;;;;;5074775;28;20037;-61
2021/12/18 04:08:51;;;;;;;3.72;1.75;;;14.90;99.90;;;;;;5074383;28;20040;-61
2021/12/18 04:11:17;;;;;;;4.50;1.98;;;14.80;99.90;;;;;;5070221;28;20049;-61
2021/12/18 04:13:45;;;;;;;3.85;1.70;;;14.50;99.90;;;;;;5074745;28;20047;-61
2021/12/18 04:16:11;;;;;;;4.10;1.67;;;14.70;99.90;;;;;;5074644;28;20048;-61
2021/12/18 04:18:37;;;;;;;3.65;1.50;;;14.70;99.90;;;;;;5074658;28;20048;-61
2021/12/18 04:21:03;;;;;;;3.63;1.50;;;14.70;99.90;;;;;;5074044;28;20394;-61
2021/12/18 04:23:29;;;;;;;3.60;1.55;;;;;;;;;;5073069;28;20413;-60
2021/12/18 04:25:55;;;;;;;3.22;1.48;;;14.90;99.90;;;;;;5074461;28;20044;-61
2021/12/18 04:28:21;;;;;;;3.70;1.60;;;14.60;99.90;;;;;;5059413;28;20138;-61
2021/12/18 04:30:47;;;;;;;3.38;1.48;;;14.90;99.90;;;;;;5073858;28;20044;-61
2021/12/18 04:33:13;;;;;;;2.85;1.25;;;14.70;99.90;;;;;;5074468;28;20394;-60
2021/12/18 04:35:39;;;;;;;3.75;1.60;;;14.40;99.90;;;;;;5074341;28;20489;-60
2021/12/18 04:38:05;;;;;;;3.22;1.42;;;14.80;99.90;;;;;;5074378;28;20483;-61
2021/12/18 04:40:31;;;;;;;3.47;1.60;;;14.80;99.90;;;;;;5074035;28;20135;-61
2021/12/18 04:42:56;;;;;;;3.17;1.50;;;14.90;99.90;;;;;;5073683;28;20124;-60
2021/12/18 04:45:23;;;;;;;2.42;1.25;;;14.80;99.90;;;;;;5074103;28;20072;-61
2021/12/18 04:47:49;;;;;;;2.63;1.20;;;14.80;99.90;;;;;;5073828;28;20045;-61
2021/12/18 04:50:14;;;;;;;3.40;1.50;;;14.40;99.90;;;;;;5074238;28;20452;-61
2021/12/18 04:52:40;;;;;;;4.07;1.50;;;14.90;99.90;;;;;;5073413;28;20486;-66
2021/12/18 04:55:06;;;;;;;2.92;1.40;;;14.90;99.90;;;;;;5073593;28;20069;-66
2021/12/18 04:57:32;;;;;;;3.05;1.23;;;14.50;99.90;;;;;;5072573;28;20098;-66
2021/12/18 04:59:58;;;;;;;3.08;1.38;;;14.60;99.90;;;;;;5073623;28;20649;-61
2021/12/18 05:02:33;;;;;;;3.58;1.42;;;14.80;99.90;;;;;;5073603;28;20040;-62
2021/12/18 05:04:59;;;;;;;1.73;1.02;;;;;;;;;;5055762;28;20498;-60
2021/12/18 05:07:27;;;;;;;3.15;1.40;;;14.70;99.90;;;;;;5073637;28;20041;-61
2021/12/18 05:09:52;;;;;;;3.58;1.52;;;14.90;99.90;;;;;;5073713;28;20402;-61
2021/12/18 05:12:19;;;;;;;3.00;1.40;;;;;;;;;;5073452;28;20048;-63
2021/12/18 05:14:45;;;;;;;2.75;1.10;;;;;;;;;;5073217;28;20048;-62
2021/12/18 05:17:11;;;;;;;3.22;1.33;;;14.80;99.90;;;;;;5073756;28;20087;-61
2021/12/18 05:19:37;;;;;;;2.83;1.23;;;14.80;99.90;;;;;;5073670;28;20479;-61
2021/12/18 05:22:04;;;;;;;2.58;1.00;;;14.80;99.90;;;;;;5073198;28;20044;-60
2021/12/18 05:24:29;;;;;;;3.10;1.25;;;14.40;99.90;;;;;;5071489;28;20045;-61
2021/12/18 05:26:55;;;;;;;3.15;1.23;;;14.90;99.90;;;;;;5055317;28;20046;-61
2021/12/18 05:29:21;;;;;;;3.97;1.48;;;14.80;99.90;;;;;;5072715;28;20040;-61
2021/12/18 05:31:47;;;;;;;2.90;1.40;;;14.50;99.90;;;;;;5055610;28;20037;-65
2021/12/18 05:34:22;;;;;;;3.22;1.30;;;14.70;99.90;;;;;;5072544;28;20138;-65
2021/12/18 05:37:11;;;;;;;2.33;1.02;;;14.80;99.90;;;;;;5073029;28;20490;-65
2021/12/18 05:39:37;;;;;;;2.75;1.27;;;14.60;99.90;;;;;;5072912;28;20083;-66
2021/12/18 05:42:03;;;;;;;2.72;1.30;;;14.80;99.90;;;;;;5073191;28;20043;-66
2021/12/18 05:44:29;;;;;;;2.22;0.98;;;14.90;99.90;;;;;;5073324;28;20055;-64
2021/12/18 05:46:54;;;;;;;3.35;1.40;;;14.40;99.90;;;;;;5072124;28;20394;-66
2021/12/18 05:49:20;;;;;;;2.80;1.35;;;14.70;99.90;;;;;;5073137;28;20132;-65
2021/12/18 05:51:46;;;;;;;2.70;1.38;;;14.80;99.90;;;;;;5071801;28;20478;-66
2021/12/18 05:54:13;;;;;;;2.75;1.30;;;14.60;99.90;;;;;;5073418;28;20044;-66
2021/12/18 05:56:38;;;;;;;2.67;1.20;;;14.80;99.90;;;;;;5071966;28;20048;-66
2021/12/18 05:59:04;;;;;;;3.25;1.23;;;14.80;99.90;;;;;;5072523;28;20051;-65
2021/12/18 06:01:30;;;;;;;2.47;1.20;;;14.70;99.90;;;;;;5072864;28;20044;-65
2021/12/18 06:03:56;;;;;;;3.45;1.50;;;14.80;99.90;;;;;;5072757;28;20397;-66
2021/12/18 06:06:22;;;;;;;2.20;1.00;;;14.60;99.90;;;;;;5073489;28;20051;-66
2021/12/18 06:08:48;;;;;;;2.20;1.13;;;14.80;99.90;;;;;;5055140;28;20054;-66
2021/12/18 06:11:16;;;;;;;3.33;1.20;;;14.80;99.90;;;;;;5073171;28;20043;-65
2021/12/18 06:13:49;;;;;;;2.53;1.17;;;14.90;99.90;;;;;;5073040;28;20055;-61
2021/12/18 06:16:15;;;;;;;2.15;1.10;;;;;;;;;;5072643;28;20040;-61
2021/12/18 06:18:44;;;;;;;3.15;1.25;;;14.80;99.90;;;;;;5072365;28;20036;-61
2021/12/18 06:21:10;;;;;;;2.70;1.23;;;14.70;99.90;;;;;;5072956;28;20110;-61
2021/12/18 06:23:36;;;;;;;2.38;1.20;;;;;;;;;;5072896;28;20080;-61
2021/12/18 06:26:02;;;;;;;2.83;1.08;;;14.80;99.90;;;;;;5072729;28;20430;-61
2021/12/18 06:28:28;;;;;;;2.63;1.48;;;14.90;99.90;;;;;;5072267;28;20098;-62
2021/12/18 06:30:53;;;;;;;2.55;1.20;;;14.90;99.90;;;;;;5073144;28;20115;-60
2021/12/18 06:33:19;;;;;;;3.03;1.35;;;15.00;99.90;;;;;;5072827;28;20036;-61
2021/12/18 06:35:45;;;;;;;3.45;1.25;;;15.20;99.90;;;;;;5072420;28;20044;-66
2021/12/18 06:38:11;;;;;;;2.65;1.20;;;15.10;99.90;;;;;;5072429;28;20047;-65
2021/12/18 06:40:37;;;;;;;3.17;1.40;;;14.80;99.90;;;;;;5073778;28;20251;-66
2021/12/18 06:43:03;;;;;;;2.15;1.33;;;15.00;99.90;;;;;;5076779;28;20113;-61
2021/12/18 06:45:29;;;;;;;2.80;1.40;;;14.80;99.90;;;;;;5076463;28;20520;-61
2021/12/18 06:47:55;;;;;;;3.10;1.50;;;;;;;;;;5076224;28;20055;-62
2021/12/18 06:50:21;;;;;;;3.13;1.40;;;14.90;99.90;;;;;;5075269;28;20131;-61
2021/12/18 06:52:47;;;;;;;3.33;1.48;;;15.20;99.90;;;;;;5076289;28;20115;-62
2021/12/18 06:55:13;;;;;;;4.13;1.58;;;;;;;;;;5076015;28;20036;-61
2021/12/18 06:57:38;;;;;;;3.00;1.48;;;15.10;99.90;;;;;;5075868;28;20127;-62
2021/12/18 07:00:06;;;;;;;3.03;1.50;;;;;;;;;;5075638;28;20489;-61
2021/12/18 07:02:31;;;;;;;4.93;1.92;;;14.80;99.90;;;;;;5057478;28;20398;-61
2021/12/18 07:04:57;;;;;;;3.30;1.40;;;14.70;99.90;;;;;;5076035;28;20056;-61
2021/12/18 07:07:23;;;;;;;3.30;1.50;;;14.90;99.90;;;;;;5075991;28;20072;-61
2021/12/18 07:09:49;;;;;;;3.97;1.42;;;;;;;;;;5075850;28;20067;-64
2021/12/18 07:12:15;;;;;;;3.22;1.60;;;14.80;99.90;;;;;;5075321;28;20044;-67
2021/12/18 07:14:41;;;;;;;3.78;1.67;;;14.90;99.90;;;;;;5076148;28;20558;-66
2021/12/18 07:17:07;;;;;;;2.80;1.33;;;;;;;;;;5075681;28;20041;-66
2021/12/18 07:19:33;;;;;;;3.15;1.38;;;15.10;99.90;;;;;;5076049;28;20111;-61
2021/12/18 07:21:59;;;;;;;3.78;1.60;;;14.90;99.90;;;;;;5057292;28;20070;-61
2021/12/18 07:24:25;;;;;;;3.58;1.42;;;14.90;99.90;;;;;;5075773;28;20044;-63
2021/12/18 07:26:50;;;;;;;3.55;1.50;;;15.00;99.90;;;;;;5075693;28;20083;-62
2021/12/18 07:29:16;;;;;;;3.25;1.52;;;15.00;99.90;;;;;;5075323;28;20456;-62
2021/12/18 07:31:51;;;;;;;3.95;1.60;;;15.10;99.90;;;;;;5075331;28;20044;-61
2021/12/18 07:34:18;;;;;;;3.72;1.60;;;15.10;99.90;;;;;;5071820;28;20037;-61
2021/12/18 07:36:47;;;;;;;3.75;1.40;;;14.80;99.90;;;;;;5066271;28;20049;-66
2021/12/18 07:39:34;;;;;;;3.85;1.75;;;;;;;;;;5057484;28;20095;-61
2021/12/18 07:42:01;;;;;;;5.75;1.83;;;15.00;99.90;;;;;;5075167;28;20116;-61
2021/12/18 07:44:28;;;;;;;3.03;1.27;;;15.00;99.90;;;;;;5074248;28;20037;-62
2021/12/18 07:46:55;;;;;;;4.00;1.85;;;15.00;99.90;;;;;;5074171;28;20102;-61
2021/12/18 07:49:24;;;;;;;3.65;1.40;;;15.00;99.90;;;;;;5074745;28;20486;-61
2021/12/18 07:51:54;;;;;;;4.60;1.73;;;14.90;99.90;;;;;;5074476;28;20047;-67
2021/12/18 07:54:21;;;;;;;4.40;1.33;;;15.00;99.90;;;;;;5074970;28;20048;-63
2021/12/18 07:56:47;;;;;;;4.75;1.70;;;14.90;99.90;;;;;;5063054;28;20505;-61
2021/12/18 07:59:15;;;;;;;4.57;1.50;;;15.00;99.90;;;;;;5074352;28;20041;-65
2021/12/18 08:01:42;;;;;;;4.80;1.65;;;15.00;99.90;;;;;;5074713;28;20425;-61
2021/12/18 08:04:08;;;;;;;3.92;1.50;;;15.10;99.90;;;;;;5074357;28;20056;-61
2021/12/18 08:06:34;;;;;;;6.10;1.70;;;14.90;99.90;;;;;;5074353;28;20040;-61
2021/12/18 08:09:00;;;;;;;5.43;1.88;;;15.10;99.90;;;;;;5050478;28;20049;-67
2021/12/18 08:11:26;;;;;;;7.38;1.83;;;15.20;99.90;;;;;;5068035;28;20044;-64
2021/12/18 08:14:07;;;;;;;7.07;1.90;;;15.20;99.90;;;;;;5074079;28;20498;-61
2021/12/18 08:16:34;;;;;;;7.22;2.05;;;14.90;99.90;;;;;;5074022;28;20040;-61
2021/12/18 08:19:00;;;;;;;5.63;2.10;;;15.00;99.90;;;;;;5073424;28;20470;-61
2021/12/18 08:21:27;;;;;;;6.85;1.92;;;15.00;99.90;;;;;;5073838;28;20439;-61
2021/12/18 08:23:54;;;;;;;8.40;1.92;;;14.90;99.90;;;;;;5074500;28;20066;-61
2021/12/18 08:26:21;;;;;;;4.50;1.85;;;15.00;99.90;;;;;;5073789;28;20406;-61
2021/12/18 08:28:47;;;;;;;5.43;2.05;;;15.00;99.90;;;;;;5073681;28;20474;-61
2021/12/18 08:31:13;;;;;;;7.00;2.13;;;15.00;99.90;;;;;;5055452;28;20435;-63
2021/12/18 08:33:40;;;;;;;5.75;2.22;;;14.80;99.90;;;;;;5073002;28;20044;-64
2021/12/18 08:36:06;;;;;;;8.52;2.45;;;15.00;99.90;;;;;;5073875;28;20040;-61
2021/12/18 08:38:40;;;;;;;6.90;1.95;;;14.80;99.90;;;;;;5074328;28;20036;-61
2021/12/18 08:41:06;;;;;;;6.88;1.95;;;14.90;99.90;;;;;;5073479;28;20044;-62
2021/12/18 08:43:32;;;;;;;6.18;1.92;;;14.90;99.90;;;;;;5073712;28;20048;-61
2021/12/18 08:45:58;;;;;;;8.30;2.17;;;14.70;99.90;;;;;;5073883;28;20406;-61
2021/12/18 08:48:24;;;;;;;5.72;1.98;;;14.80;99.90;;;;;;5074414;28;20041;-61
2021/12/18 08:50:50;;;;;;;6.97;1.80;;;14.80;99.90;;;;;;5072674;28;20040;-65
2021/12/18 08:53:15;;;;;;;7.63;1.80;;;15.00;99.90;;;;;;5073615;28;20040;-68
2021/12/18 08:55:41;;;;;;;8.10;1.88;;;14.80;99.90;;;;;;5073879;28;20044;-66
2021/12/18 08:58:07;;;;;;;7.70;1.90;;;14.80;99.90;;;;;;5073826;28;20067;-66
2021/12/18 09:00:33;;;;;;;6.40;2.00;;;14.40;99.90;;;;;;5073361;28;20388;-60
2021/12/18 09:03:00;;;;;;;5.03;1.40;;;14.70;99.90;;;;;;5073196;28;20375;-61
2021/12/18 09:05:26;;;;;;;7.38;1.50;;;14.50;99.90;;;;;;5074192;28;20041;-61
2021/12/18 09:07:52;;;;;;;8.20;1.60;;;14.90;99.90;;;;;;5056458;28;20127;-61
2021/12/18 09:10:19;;;;;;;6.57;2.20;;;14.60;99.90;;;;;;5074019;28;20128;-61
2021/12/18 09:12:45;;;;;;;7.55;1.70;;;14.80;99.90;;;;;;5073499;28;20059;-62
2021/12/18 09:15:11;;;;;;;7.05;1.52;;;14.70;99.90;;;;;;5073092;28;20049;-65
2021/12/18 09:17:37;;;;;;;3.53;1.38;;;;;;;;;;5073947;28;20127;-66
2021/12/18 09:20:04;;;;;;;5.32;1.55;;;14.70;99.90;;;;;;5074710;28;20131;-66
2021/12/18 09:22:29;;;;;;;4.20;1.20;;;14.80;99.90;;;;;;5050632;28;20051;-61
2021/12/18 09:24:55;;;;;;;6.93;1.48;;;14.80;99.90;;;;;;5035888;28;20045;-61
2021/12/18 09:27:22;;;;;;;5.35;1.38;;;14.70;99.90;;;;;;5053703;28;20399;-61
2021/12/18 09:29:48;;;;;;;6.88;1.95;;;14.80;99.90;;;;;;5063587;28;20420;-60
2021/12/18 09:32:14;;;;;;;2.75;1.33;;;14.70;99.90;;;;;;5073856;28;20033;-61
2021/12/18 09:34:39;;;;;;;6.00;1.60;;;14.60;99.90;;;;;;5072471;28;20036;-61
2021/12/18 09:37:05;;;;;;;4.10;1.10;;;14.80;99.90;;;;;;5073623;28;20032;-61
2021/12/18 09:39:31;;;;;;;4.90;1.45;;;14.80;99.90;;;;;;5073596;28;20044;-61
2021/12/18 09:41:57;;;;;;;5.00;1.35;;;14.90;99.90;;;;;;5073665;28;20075;-60
2021/12/18 09:44:28;;;;;;;7.18;1.88;;;14.90;99.90;;;;;;5073395;28;20041;-61
2021/12/18 09:46:54;;;;;;;7.05;1.50;;;14.80;99.90;;;;;;5038673;28;20510;-61
2021/12/18 09:49:20;;;;;;;7.22;1.35;;;14.90;99.90;;;;;;5072377;28;20060;-61
2021/12/18 09:51:46;;;;;;;7.75;1.52;;;15.00;99.90;;;;;;5073292;28;20049;-63
2021/12/18 09:54:12;;;;;;;5.30;1.88;;;14.80;99.90;;;;;;5072643;28;20474;-61
2021/12/18 09:56:38;;;;;;;5.50;1.80;;;14.60;99.90;;;;;;5073095;28;20055;-62
2021/12/18 09:59:05;;;;;;;5.88;1.40;;;14.80;99.90;;;;;;5073160;28;20053;-61
2021/12/18 10:01:31;;;;;;;4.60;1.15;;;14.70;99.90;;;;;;5073200;28;20127;-61
2021/12/18 10:03:58;;;;;;;6.78;1.63;;;14.90;99.90;;;;;;5071810;28;20121;-61
2021/12/18 10:06:41;;;;;;;7.40;1.42;;;15.20;99.90;;;;;;5072677;28;20398;-61
2021/12/18 10:09:13;;;;;;;9.82;1.95;;;14.90;99.90;;;;;;5072136;28;20052;-61
2021/12/18 10:11:49;;;;;;;9.10;2.10;;;15.00;99.90;;;;;;5072954;28;20123;-60
2021/12/18 10:14:15;;;;;;;8.90;1.60;;;15.30;99.90;;;;;;5055998;28;20148;-61
2021/12/18 10:16:51;;;;;;;15.75;2.22;;;15.10;99.90;;;;;;5076302;28;20048;-62
2021/12/18 10:19:27;;;;;;;9.60;1.63;;;15.10;99.90;;;;;;5077247;28;20048;-61
2021/12/18 10:22:01;;;;;;;7.70;1.60;;;15.00;99.90;;;;;;5077031;28;20101;-61
2021/12/18 10:24:27;;;;;;;7.97;2.00;;;15.20;99.90;;;;;;5077129;28;20072;-60
2021/12/18 10:26:53;;;;;;;7.43;1.80;;;14.90;99.90;;;;;;5076547;28;20087;-61
2021/12/18 10:29:34;;;;;;;6.40;1.80;;;15.20;99.90;;;;;;5076644;28;20406;-61
2021/12/18 10:32:07;;;;;;;4.30;1.52;;;15.00;99.90;;;;;;5077585;28;20423;-61
2021/12/18 10:34:33;;;;;;;7.00;1.48;;;15.20;99.90;;;;;;5058827;28;20102;-61
2021/12/18 10:37:22;;;;;;;6.43;1.48;;;15.10;99.40;;;;;;5075720;28;20044;-60
2021/12/18 10:39:53;;;;;;;4.38;1.63;;;;;;;;;;5075432;28;20110;-61
2021/12/18 10:42:23;;;;;;;5.70;1.40;;;14.80;99.90;;;;;;5076669;28;20402;-61
2021/12/18 10:45:13;;;;;;;6.20;1.60;;;15.20;99.90;;;;;;5076400;28;20051;-61
2021/12/18 10:47:56;;;;;;;6.25;1.25;;;14.90;99.90;;;;;;5076411;28;20044;-62
2021/12/18 10:50:36;;;;;;;9.77;1.80;;;15.10;99.90;;;;;;5075841;28;20466;-61
2021/12/18 10:53:22;;;;;;;8.13;1.77;;;14.90;99.20;;;;;;5075449;28;20437;-61
2021/12/18 10:55:54;;;;;;;8.55;1.70;;;15.20;99.90;;;;;;5076415;28;20076;-62
2021/12/18 10:58:33;;;;;;;9.10;2.05;;;14.80;99.90;;;;;;5074874;28;20110;-61
2021/12/18 11:00:58;;;;;;;6.90;1.60;;;15.30;99.90;;;;;;5074960;28;20048;-61
2021/12/18 11:03:26;;;;;;;6.50;1.52;;;15.00;99.90;;;;;;5076489;28;20041;-61
2021/12/18 11:06:02;;;;;;;6.32;1.40;;;14.70;99.90;;;;;;5076458;28;20106;-60
2021/12/18 11:08:28;;;;;;;7.60;1.90;;;15.00;99.90;;;;;;5076419;28;20121;-60
2021/12/18 11:13:38;;;;;;;5.90;1.50;;;14.90;99.90;;;;;;5057364;28;20048;-61
2021/12/18 11:13:48;;;;;;;;;;;15.10;99.90;;;;;;5076359;28;20060;-60
2021/12/18 11:16:16;;;;;;;4.13;1.30;;;15.10;99.90;;;;;;5076337;28;20345;-61
2021/12/18 11:18:42;;;;;;;6.70;1.40;;;15.00;99.90;;;;;;5058433;28;20044;-60
2021/12/18 11:21:08;;;;;;;8.45;1.95;;;15.20;99.90;;;;;;5074169;28;20113;-66
2021/12/18 11:23:55;;;;;;;4.80;1.60;;;15.10;99.50;;;;;;5073531;28;20123;-66
2021/12/18 11:26:22;;;;;;;6.55;1.70;;;15.10;99.90;;;;;;5072016;28;20055;-66
2021/12/18 11:28:50;;;;;;;10.35;2.10;;;15.00;99.90;;;;;;5075668;28;20545;-66
2021/12/18 11:31:16;;;;;;;6.95;1.92;;;14.80;99.90;;;;;;5074509;28;20124;-66
2021/12/18 11:33:42;;;;;;;7.50;1.65;;;15.30;99.90;;;;;;5076232;28;20045;-68
2021/12/18 11:36:09;;;;;;;8.02;1.67;;;15.20;99.90;;;;;;5074718;28;20493;-66
2021/12/18 11:38:39;;;;;;;6.07;1.50;;;15.00;99.90;;;;;;5075047;28;20086;-65
2021/12/18 11:41:05;;;;;;;10.80;1.95;;;15.20;99.90;;;;;;5073597;28;20047;-66
2021/12/18 11:43:38;;;;;;;6.07;1.38;;;15.20;99.90;;;;;;5075542;28;20037;-66
2021/12/18 11:46:31;;;;;;;8.27;2.30;;;15.20;99.90;;;;;;5057837;28;20046;-66
2021/12/18 11:49:01;;;;;;;8.18;1.42;;;15.30;99.90;;;;;;5075687;28;20051;-65
2021/12/18 11:51:28;;;;;;;6.68;1.50;;;15.30;99.90;;;;;;5075317;28;20056;-65
2021/12/18 11:53:54;;;;;;;7.13;1.70;;;15.40;99.90;;;;;;5074857;28;20041;-65
2021/12/18 11:56:20;;;;;;;7.38;2.10;;;15.20;99.90;;;;;;5075056;28;20123;-66
2021/12/18 12:02:47;;;;;;;8.32;1.77;;;15.30;99.30;;;;;;5074440;28;20040;-66
2021/12/18 12:05:13;;;;;;;6.20;1.92;;;15.20;99.90;;;;;;5074810;28;20048;-66
2021/12/18 12:07:39;;;;;;;6.15;1.50;;;15.20;99.90;;;;;;5073888;28;20047;-65
2021/12/18 12:10:19;;;;;;;7.43;1.83;;;15.30;99.80;;;;;;5074105;28;20048;-67
2021/12/18 12:12:55;;;;;;;6.80;1.70;;;15.30;99.30;;;;;;5060780;28;20043;-66
2021/12/18 12:15:26;;;;;;;5.22;1.88;;;15.20;99.90;;;;;;5072080;28;20457;-66
2021/12/18 12:17:59;;;;;;;5.97;1.60;;;15.00;99.90;;;;;;5074852;28;20097;-67
2021/12/18 12:20:36;;;;;;;8.70;1.67;;;15.20;99.20;;;;;;5075068;28;20055;-61
2021/12/18 12:23:03;;;;;;;6.05;1.55;;;15.20;99.90;;;;;;5056999;28;20137;-61
2021/12/18 12:26:01;;;;;;;6.72;1.80;;;15.40;99.90;;;;;;5073621;28;20138;-61
2021/12/18 12:28:27;;;;;;;9.82;1.60;;;;;;;;;;5062007;28;20118;-66
2021/12/18 12:30:56;;;;;;;6.40;1.70;;;15.30;99.90;;;;;;5051499;28;20067;-66
2021/12/18 12:33:24;;;;;;;7.05;1.70;;;15.00;99.90;;;;;;5052282;28;20052;-61
2021/12/18 12:35:59;;;;;;;10.77;2.35;;;15.10;99.90;;;;;;5051694;28;20091;-61
2021/12/18 12:38:33;;;;;;;8.35;1.83;;;15.60;99.90;;;;;;5052339;28;20089;-61
2021/12/18 12:41:38;;;;;;;8.23;1.67;;;15.30;99.50;;;;;;5052318;28;20098;-60
2021/12/18 12:44:11;;;;;;;6.93;2.45;;;15.30;99.90;;;;;;5051418;28;20053;-61
2021/12/18 12:46:37;;;;;;;8.82;1.98;;;15.30;99.90;;;;;;5031997;28;20059;-61
2021/12/18 12:49:12;;;;;;;5.95;1.50;;;15.40;99.90;;;;;;5051409;28;20119;-60
2021/12/18 12:51:57;;;;;;;8.60;1.58;;;15.40;99.50;;;;;;5051864;28;20171;-62
2021/12/18 12:54:51;;;;;;;8.05;2.03;;;15.50;99.60;;;;;;5052111;28;20060;-61
2021/12/18 12:57:23;;;;;;;6.80;2.25;;;15.40;99.90;;;;;;5051390;28;20127;-61
2021/12/18 12:59:50;;;;;;;5.28;1.90;;;15.30;99.90;;;;;;5051940;28;20056;-61
2021/12/18 13:02:16;;;;;;;5.40;1.55;;;15.10;99.90;;;;;;5051957;28;20120;-61
2021/12/18 13:04:41;;;;;;;5.55;1.38;;;15.30;99.90;;;;;;5061454;28;20131;-61
2021/12/18 13:07:07;;;;;;;5.07;1.30;;;15.40;99.90;;;;;;5068148;28;20048;-61
2021/12/18 13:09:34;;;;;;;5.82;1.73;;;15.20;99.90;;;;;;5054042;28;20449;-61
2021/12/18 13:12:03;;;;;;;5.70;1.58;;;15.30;99.90;;;;;;5052559;28;20115;-61
2021/12/18 13:14:36;;;;;;;5.70;1.73;;;15.40;99.90;;;;;;5054049;28;20079;-61
2021/12/18 13:17:15;;;;;;;6.25;1.55;;;15.50;99.90;;;;;;5053913;28;20037;-61
2021/12/18 13:19:54;;;;;;;7.63;2.42;;;15.20;99.90;;;;;;5072743;28;20048;-60
2021/12/18 13:22:23;;;;;;;3.92;1.50;;;15.10;99.90;;;;;;5062088;28;20124;-61
2021/12/18 13:25:09;;;;;;;7.10;1.45;;;15.40;99.90;;;;;;5073673;28;20052;-61
2021/12/18 13:27:36;;;;;;;4.90;1.73;;;15.40;99.90;;;;;;5055453;28;20587;-60
2021/12/18 13:30:14;;;;;;;4.20;1.65;;;15.40;99.90;;;;;;5056105;28;20456;-61
2021/12/18 13:33:03;;;;;;;5.82;1.63;;;15.60;99.90;;;;;;5053818;28;20443;-60
2021/12/18 13:35:32;;;;;;;4.20;1.90;;;15.30;99.90;;;;;;5053490;28;20437;-61
2021/12/18 13:38:00;;;;;;;6.75;1.63;;;15.30;99.70;;;;;;5053681;28;20128;-60
2021/12/18 13:40:27;;;;;;;6.68;1.80;;;15.60;99.90;;;;;;5067929;28;20079;-60
2021/12/18 13:43:22;;;;;;;4.88;1.48;;;15.40;99.90;;;;;;5073656;28;20044;-60
2021/12/18 13:45:51;;;;;;;8.35;1.65;;;15.20;99.90;;;;;;5071873;28;20052;-61
2021/12/18 13:48:17;;;;;;;5.55;1.80;;;15.30;99.90;;;;;;5063894;28;20049;-61